sensor_id;sensor_type;location;lat;lon;timestamp;P1;durP1;ratioP1;P2;durP2;ratioP2
35562;SDS011;21665;40.108;18.302;2023-02-21T00:01:16;119.45;;;53.08;;
35562;SDS011;21665;40.108;18.302;2023-02-21T00:04:01;112.55;;;46.95;;
35562;SDS011;21665;40.108;18.302;2023-02-21T00:06:46;113.78;;;49.63;;
35562;SDS011;21665;40.108;18.302;2023-02-21T00:12:15;113.33;;;47.40;;
35562;SDS011;21665;40.108;18.302;2023-02-21T00:15:00;120.60;;;52.05;;
35562;SDS011;21665;40.108;18.302;2023-02-21T00:17:45;120.38;;;48.08;;
35562;SDS011;21665;40.108;18.302;2023-02-21T00:20:30;129.75;;;52.00;;
35562;SDS011;21665;40.108;18.302;2023-02-21T00:23:14;135.55;;;54.30;;
35562;SDS011;21665;40.108;18.302;2023-02-21T00:25:59;136.77;;;59.35;;
35562;SDS011;21665;40.108;18.302;2023-02-21T00:29:12;142.27;;;58.40;;
35562;SDS011;21665;40.108;18.302;2023-02-21T00:31:58;139.07;;;56.95;;
35562;SDS011;21665;40.108;18.302;2023-02-21T00:34:43;150.57;;;59.10;;
35562;SDS011;21665;40.108;18.302;2023-02-21T00:37:28;143.98;;;57.92;;
35562;SDS011;21665;40.108;18.302;2023-02-21T00:40:13;142.25;;;55.97;;
35562;SDS011;21665;40.108;18.302;2023-02-21T00:42:59;141.52;;;55.88;;
35562;SDS011;21665;40.108;18.302;2023-02-21T00:45:45;139.95;;;56.83;;
35562;SDS011;21665;40.108;18.302;2023-02-21T00:48:31;128.43;;;53.85;;
35562;SDS011;21665;40.108;18.302;2023-02-21T00:51:16;131.30;;;55.05;;
35562;SDS011;21665;40.108;18.302;2023-02-21T00:54:01;128.00;;;52.90;;
35562;SDS011;21665;40.108;18.302;2023-02-21T00:56:46;125.32;;;52.40;;
35562;SDS011;21665;40.108;18.302;2023-02-21T00:59:32;122.05;;;51.28;;
35562;SDS011;21665;40.108;18.302;2023-02-21T01:02:17;127.05;;;52.05;;
35562;SDS011;21665;40.108;18.302;2023-02-21T01:05:03;119.63;;;51.67;;
35562;SDS011;21665;40.108;18.302;2023-02-21T01:07:49;134.05;;;53.70;;
35562;SDS011;21665;40.108;18.302;2023-02-21T01:10:34;112.85;;;49.35;;
35562;SDS011;21665;40.108;18.302;2023-02-21T01:13:21;177.57;;;54.83;;
35562;SDS011;21665;40.108;18.302;2023-02-21T01:16:06;179.57;;;53.97;;
35562;SDS011;21665;40.108;18.302;2023-02-21T01:18:52;240.68;;;52.97;;
35562;SDS011;21665;40.108;18.302;2023-02-21T01:21:37;260.77;;;49.95;;
35562;SDS011;21665;40.108;18.302;2023-02-21T01:24:25;204.07;;;44.63;;
35562;SDS011;21665;40.108;18.302;2023-02-21T01:27:10;320.20;;;53.75;;
35562;SDS011;21665;40.108;18.302;2023-02-21T01:29:55;490.98;;;58.55;;
35562;SDS011;21665;40.108;18.302;2023-02-21T01:32:40;454.10;;;60.55;;
35562;SDS011;21665;40.108;18.302;2023-02-21T01:35:25;489.20;;;64.28;;
35562;SDS011;21665;40.108;18.302;2023-02-21T01:38:13;528.25;;;67.00;;
35562;SDS011;21665;40.108;18.302;2023-02-21T01:40:59;246.88;;;51.92;;
35562;SDS011;21665;40.108;18.302;2023-02-21T01:44:04;233.95;;;52.25;;
35562;SDS011;21665;40.108;18.302;2023-02-21T01:46:55;289.45;;;54.20;;
35562;SDS011;21665;40.108;18.302;2023-02-21T01:49:41;187.88;;;49.72;;
35562;SDS011;21665;40.108;18.302;2023-02-21T01:52:26;457.45;;;62.15;;
35562;SDS011;21665;40.108;18.302;2023-02-21T01:55:11;459.08;;;58.38;;
35562;SDS011;21665;40.108;18.302;2023-02-21T01:57:56;463.50;;;58.55;;
35562;SDS011;21665;40.108;18.302;2023-02-21T02:00:42;312.13;;;52.80;;
35562;SDS011;21665;40.108;18.302;2023-02-21T02:03:28;520.13;;;63.13;;
35562;SDS011;21665;40.108;18.302;2023-02-21T02:06:15;433.27;;;59.75;;
35562;SDS011;21665;40.108;18.302;2023-02-21T02:09:16;370.80;;;58.28;;
35562;SDS011;21665;40.108;18.302;2023-02-21T02:17:43;484.50;;;57.28;;
35562;SDS011;21665;40.108;18.302;2023-02-21T02:26:03;249.70;;;46.17;;
35562;SDS011;21665;40.108;18.302;2023-02-21T02:37:00;297.38;;;48.05;;
35562;SDS011;21665;40.108;18.302;2023-02-21T02:48:04;383.55;;;47.55;;
35562;SDS011;21665;40.108;18.302;2023-02-21T02:50:40;176.52;;;38.53;;
35562;SDS011;21665;40.108;18.302;2023-02-21T02:53:10;252.45;;;43.47;;
35562;SDS011;21665;40.108;18.302;2023-02-21T02:55:40;203.18;;;37.90;;
35562;SDS011;21665;40.108;18.302;2023-02-21T02:58:15;159.98;;;33.78;;
35562;SDS011;21665;40.108;18.302;2023-02-21T03:00:48;188.75;;;38.33;;
35562;SDS011;21665;40.108;18.302;2023-02-21T03:03:40;221.68;;;40.33;;
35562;SDS011;21665;40.108;18.302;2023-02-21T03:06:18;215.55;;;39.20;;
35562;SDS011;21665;40.108;18.302;2023-02-21T03:09:12;355.60;;;46.55;;
35562;SDS011;21665;40.108;18.302;2023-02-21T03:12:07;170.95;;;34.83;;
35562;SDS011;21665;40.108;18.302;2023-02-21T03:14:37;217.23;;;38.95;;
35562;SDS011;21665;40.108;18.302;2023-02-21T03:17:26;158.18;;;36.28;;
35562;SDS011;21665;40.108;18.302;2023-02-21T03:19:56;198.00;;;35.50;;
35562;SDS011;21665;40.108;18.302;2023-02-21T03:22:25;300.75;;;42.88;;
35562;SDS011;21665;40.108;18.302;2023-02-21T03:24:56;246.98;;;39.88;;
35562;SDS011;21665;40.108;18.302;2023-02-21T03:27:26;251.10;;;44.42;;
35562;SDS011;21665;40.108;18.302;2023-02-21T03:30:04;169.10;;;39.45;;
35562;SDS011;21665;40.108;18.302;2023-02-21T03:32:36;202.60;;;39.35;;
35562;SDS011;21665;40.108;18.302;2023-02-21T03:35:13;208.00;;;40.63;;
35562;SDS011;21665;40.108;18.302;2023-02-21T03:37:44;227.43;;;42.25;;
35562;SDS011;21665;40.108;18.302;2023-02-21T03:40:18;130.50;;;35.53;;
35562;SDS011;21665;40.108;18.302;2023-02-21T03:42:49;132.15;;;36.38;;
35562;SDS011;21665;40.108;18.302;2023-02-21T03:45:19;169.88;;;39.60;;
35562;SDS011;21665;40.108;18.302;2023-02-21T03:48:00;174.73;;;37.45;;
35562;SDS011;21665;40.108;18.302;2023-02-21T03:50:30;220.85;;;39.50;;
35562;SDS011;21665;40.108;18.302;2023-02-21T03:52:57;164.45;;;36.17;;
35562;SDS011;21665;40.108;18.302;2023-02-21T03:55:26;184.18;;;38.80;;
35562;SDS011;21665;40.108;18.302;2023-02-21T03:57:54;164.98;;;37.10;;
35562;SDS011;21665;40.108;18.302;2023-02-21T04:00:22;130.15;;;34.97;;
35562;SDS011;21665;40.108;18.302;2023-02-21T04:02:52;135.90;;;34.53;;
35562;SDS011;21665;40.108;18.302;2023-02-21T04:05:31;121.97;;;32.83;;
35562;SDS011;21665;40.108;18.302;2023-02-21T04:07:58;180.50;;;35.47;;
35562;SDS011;21665;40.108;18.302;2023-02-21T04:10:26;165.40;;;34.38;;
35562;SDS011;21665;40.108;18.302;2023-02-21T04:12:58;249.57;;;37.65;;
35562;SDS011;21665;40.108;18.302;2023-02-21T04:15:27;212.27;;;34.25;;
35562;SDS011;21665;40.108;18.302;2023-02-21T04:18:15;112.30;;;29.65;;
35562;SDS011;21665;40.108;18.302;2023-02-21T04:20:43;235.98;;;35.65;;
35562;SDS011;21665;40.108;18.302;2023-02-21T04:23:16;163.30;;;30.63;;
35562;SDS011;21665;40.108;18.302;2023-02-21T04:25:44;287.13;;;37.05;;
35562;SDS011;21665;40.108;18.302;2023-02-21T04:28:20;234.18;;;34.22;;
35562;SDS011;21665;40.108;18.302;2023-02-21T04:30:47;197.18;;;30.88;;
35562;SDS011;21665;40.108;18.302;2023-02-21T07:50:43;30.00;;;27.10;;
35562;SDS011;21665;40.108;18.302;2023-02-21T07:53:11;27.48;;;24.88;;
35562;SDS011;21665;40.108;18.302;2023-02-21T07:55:38;30.10;;;26.83;;
35562;SDS011;21665;40.108;18.302;2023-02-21T07:58:05;31.40;;;28.02;;
35562;SDS011;21665;40.108;18.302;2023-02-21T08:00:32;31.35;;;28.08;;
35562;SDS011;21665;40.108;18.302;2023-02-21T08:02:59;31.65;;;28.52;;
35562;SDS011;21665;40.108;18.302;2023-02-21T08:05:26;33.20;;;29.92;;
35562;SDS011;21665;40.108;18.302;2023-02-21T08:07:53;35.10;;;31.48;;
35562;SDS011;21665;40.108;18.302;2023-02-21T08:10:24;33.15;;;29.95;;
35562;SDS011;21665;40.108;18.302;2023-02-21T08:12:53;33.60;;;30.05;;
35562;SDS011;21665;40.108;18.302;2023-02-21T08:15:19;34.78;;;31.30;;
35562;SDS011;21665;40.108;18.302;2023-02-21T08:17:47;34.80;;;31.08;;
35562;SDS011;21665;40.108;18.302;2023-02-21T08:20:14;33.60;;;30.33;;
35562;SDS011;21665;40.108;18.302;2023-02-21T08:22:42;34.90;;;31.10;;
35562;SDS011;21665;40.108;18.302;2023-02-21T08:25:11;34.65;;;30.90;;
35562;SDS011;21665;40.108;18.302;2023-02-21T08:27:40;32.22;;;29.10;;
35562;SDS011;21665;40.108;18.302;2023-02-21T08:30:07;34.55;;;31.15;;
35562;SDS011;21665;40.108;18.302;2023-02-21T08:32:38;36.40;;;32.70;;
35562;SDS011;21665;40.108;18.302;2023-02-21T08:35:09;34.72;;;31.00;;
35562;SDS011;21665;40.108;18.302;2023-02-21T08:37:42;35.35;;;31.63;;
35562;SDS011;21665;40.108;18.302;2023-02-21T08:40:13;35.38;;;31.58;;
35562;SDS011;21665;40.108;18.302;2023-02-21T08:42:40;37.28;;;33.13;;
35562;SDS011;21665;40.108;18.302;2023-02-21T08:45:13;37.58;;;32.22;;
35562;SDS011;21665;40.108;18.302;2023-02-21T08:47:42;33.90;;;29.65;;
35562;SDS011;21665;40.108;18.302;2023-02-21T08:50:09;33.53;;;29.83;;
35562;SDS011;21665;40.108;18.302;2023-02-21T08:52:35;28.73;;;25.80;;
35562;SDS011;21665;40.108;18.302;2023-02-21T08:55:04;32.38;;;28.55;;
35562;SDS011;21665;40.108;18.302;2023-02-21T08:57:36;30.48;;;27.25;;
35562;SDS011;21665;40.108;18.302;2023-02-21T09:02:39;23.23;;;21.20;;
35562;SDS011;21665;40.108;18.302;2023-02-21T09:05:16;25.13;;;22.63;;
35562;SDS011;21665;40.108;18.302;2023-02-21T09:07:48;24.08;;;21.83;;
35562;SDS011;21665;40.108;18.302;2023-02-21T09:10:19;23.10;;;21.20;;
35562;SDS011;21665;40.108;18.302;2023-02-21T09:13:15;23.25;;;21.17;;
35562;SDS011;21665;40.108;18.302;2023-02-21T09:15:45;23.23;;;21.13;;
35562;SDS011;21665;40.108;18.302;2023-02-21T09:18:11;22.88;;;21.08;;
35562;SDS011;21665;40.108;18.302;2023-02-21T09:20:38;24.17;;;21.90;;
35562;SDS011;21665;40.108;18.302;2023-02-21T09:23:06;23.63;;;21.73;;
35562;SDS011;21665;40.108;18.302;2023-02-21T09:25:33;24.05;;;21.88;;
35562;SDS011;21665;40.108;18.302;2023-02-21T09:28:00;22.60;;;20.88;;
35562;SDS011;21665;40.108;18.302;2023-02-21T09:30:26;23.05;;;21.23;;
35562;SDS011;21665;40.108;18.302;2023-02-21T09:32:54;24.48;;;22.50;;
35562;SDS011;21665;40.108;18.302;2023-02-21T09:35:21;23.65;;;21.85;;
35562;SDS011;21665;40.108;18.302;2023-02-21T09:37:48;25.73;;;23.40;;
35562;SDS011;21665;40.108;18.302;2023-02-21T09:40:28;24.33;;;22.50;;
35562;SDS011;21665;40.108;18.302;2023-02-21T09:43:04;23.98;;;21.88;;
35562;SDS011;21665;40.108;18.302;2023-02-21T09:45:59;24.13;;;22.05;;
35562;SDS011;21665;40.108;18.302;2023-02-21T09:48:33;25.95;;;23.85;;
35562;SDS011;21665;40.108;18.302;2023-02-21T09:51:03;25.63;;;23.45;;
35562;SDS011;21665;40.108;18.302;2023-02-21T09:53:36;26.00;;;23.70;;
35562;SDS011;21665;40.108;18.302;2023-02-21T09:56:13;25.55;;;23.45;;
35562;SDS011;21665;40.108;18.302;2023-02-21T09:58:52;25.95;;;23.55;;
35562;SDS011;21665;40.108;18.302;2023-02-21T10:20:51;24.50;;;22.52;;
35562;SDS011;21665;40.108;18.302;2023-02-21T10:23:43;23.63;;;21.83;;
35562;SDS011;21665;40.108;18.302;2023-02-21T10:26:19;24.05;;;22.17;;
35562;SDS011;21665;40.108;18.302;2023-02-21T10:28:51;23.58;;;21.75;;
35562;SDS011;21665;40.108;18.302;2023-02-21T10:31:29;23.30;;;21.50;;
35562;SDS011;21665;40.108;18.302;2023-02-21T10:34:15;24.10;;;22.00;;
35562;SDS011;21665;40.108;18.302;2023-02-21T10:36:56;23.95;;;21.92;;
35562;SDS011;21665;40.108;18.302;2023-02-21T10:39:39;24.60;;;22.58;;
35562;SDS011;21665;40.108;18.302;2023-02-21T10:42:25;23.58;;;21.75;;
35562;SDS011;21665;40.108;18.302;2023-02-21T10:45:16;23.83;;;21.95;;
35562;SDS011;21665;40.108;18.302;2023-02-21T10:50:35;24.08;;;22.17;;
35562;SDS011;21665;40.108;18.302;2023-02-21T10:53:25;25.13;;;23.10;;
35562;SDS011;21665;40.108;18.302;2023-02-21T10:56:27;26.17;;;23.95;;
35562;SDS011;21665;40.108;18.302;2023-02-21T11:01:33;25.23;;;23.20;;
35562;SDS011;21665;40.108;18.302;2023-02-21T11:04:22;24.13;;;22.23;;
35562;SDS011;21665;40.108;18.302;2023-02-21T11:06:55;27.58;;;24.85;;
35562;SDS011;21665;40.108;18.302;2023-02-21T11:12:02;24.63;;;22.75;;
35562;SDS011;21665;40.108;18.302;2023-02-21T11:14:43;25.17;;;23.23;;
35562;SDS011;21665;40.108;18.302;2023-02-21T11:17:26;24.40;;;22.50;;
35562;SDS011;21665;40.108;18.302;2023-02-21T11:19:54;24.65;;;22.70;;
35562;SDS011;21665;40.108;18.302;2023-02-21T11:22:23;25.23;;;23.00;;
35562;SDS011;21665;40.108;18.302;2023-02-21T11:25:05;24.65;;;22.55;;
35562;SDS011;21665;40.108;18.302;2023-02-21T11:27:43;24.92;;;23.00;;
35562;SDS011;21665;40.108;18.302;2023-02-21T11:30:20;25.77;;;23.58;;
35562;SDS011;21665;40.108;18.302;2023-02-21T11:32:49;26.08;;;23.65;;
35562;SDS011;21665;40.108;18.302;2023-02-21T11:37:53;24.95;;;23.05;;
35562;SDS011;21665;40.108;18.302;2023-02-21T11:40:25;26.35;;;24.05;;
35562;SDS011;21665;40.108;18.302;2023-02-21T11:43:11;26.20;;;23.95;;
35562;SDS011;21665;40.108;18.302;2023-02-21T11:48:43;26.15;;;24.05;;
35562;SDS011;21665;40.108;18.302;2023-02-21T11:51:44;25.38;;;23.35;;
35562;SDS011;21665;40.108;18.302;2023-02-21T11:54:14;27.20;;;24.90;;
35562;SDS011;21665;40.108;18.302;2023-02-21T12:10:44;26.10;;;23.92;;
35562;SDS011;21665;40.108;18.302;2023-02-21T12:18:58;27.20;;;24.60;;
35562;SDS011;21665;40.108;18.302;2023-02-21T12:21:48;26.50;;;24.35;;
35562;SDS011;21665;40.108;18.302;2023-02-21T12:27:14;26.85;;;24.58;;
35562;SDS011;21665;40.108;18.302;2023-02-21T12:38:24;26.35;;;24.15;;
35562;SDS011;21665;40.108;18.302;2023-02-21T12:44:39;25.88;;;23.67;;
35562;SDS011;21665;40.108;18.302;2023-02-21T12:47:25;25.83;;;23.60;;
35562;SDS011;21665;40.108;18.302;2023-02-21T12:50:07;26.17;;;23.88;;
35562;SDS011;21665;40.108;18.302;2023-02-21T12:53:02;25.80;;;23.70;;
35562;SDS011;21665;40.108;18.302;2023-02-21T12:55:38;25.52;;;23.40;;
35562;SDS011;21665;40.108;18.302;2023-02-21T12:58:30;23.38;;;21.48;;
35562;SDS011;21665;40.108;18.302;2023-02-21T13:01:43;23.65;;;21.40;;
35562;SDS011;21665;40.108;18.302;2023-02-21T13:04:41;23.27;;;21.48;;
35562;SDS011;21665;40.108;18.302;2023-02-21T13:12:55;23.38;;;21.38;;
35562;SDS011;21665;40.108;18.302;2023-02-21T13:15:34;23.20;;;21.10;;
35562;SDS011;21665;40.108;18.302;2023-02-21T13:18:06;23.58;;;21.77;;
35562;SDS011;21665;40.108;18.302;2023-02-21T13:24:08;24.05;;;21.95;;
35562;SDS011;21665;40.108;18.302;2023-02-21T13:26:47;25.10;;;22.95;;
35562;SDS011;21665;40.108;18.302;2023-02-21T13:29:30;25.17;;;23.15;;
35562;SDS011;21665;40.108;18.302;2023-02-21T13:32:00;25.17;;;23.13;;
35562;SDS011;21665;40.108;18.302;2023-02-21T13:37:45;24.73;;;22.88;;
35562;SDS011;21665;40.108;18.302;2023-02-21T13:54:12;24.35;;;22.23;;
35562;SDS011;21665;40.108;18.302;2023-02-21T14:08:34;24.63;;;22.58;;
35562;SDS011;21665;40.108;18.302;2023-02-21T14:11:13;23.85;;;21.95;;
35562;SDS011;21665;40.108;18.302;2023-02-21T14:16:19;24.48;;;22.17;;
35562;SDS011;21665;40.108;18.302;2023-02-21T14:18:54;25.27;;;22.85;;
35562;SDS011;21665;40.108;18.302;2023-02-21T14:35:11;24.75;;;22.88;;
35562;SDS011;21665;40.108;18.302;2023-02-21T14:40:23;24.63;;;22.63;;
35562;SDS011;21665;40.108;18.302;2023-02-21T14:46:01;25.70;;;23.50;;
35562;SDS011;21665;40.108;18.302;2023-02-21T14:48:38;25.90;;;23.67;;
35562;SDS011;21665;40.108;18.302;2023-02-21T14:54:11;26.23;;;24.13;;
35562;SDS011;21665;40.108;18.302;2023-02-21T15:22:43;26.17;;;23.98;;
35562;SDS011;21665;40.108;18.302;2023-02-21T15:25:29;25.83;;;23.77;;
35562;SDS011;21665;40.108;18.302;2023-02-21T15:28:51;26.45;;;24.23;;
35562;SDS011;21665;40.108;18.302;2023-02-21T15:33:41;27.85;;;25.33;;
35562;SDS011;21665;40.108;18.302;2023-02-21T15:36:19;27.95;;;25.55;;
35562;SDS011;21665;40.108;18.302;2023-02-21T15:44:09;27.27;;;25.05;;
35562;SDS011;21665;40.108;18.302;2023-02-21T16:06:53;27.33;;;24.83;;
35562;SDS011;21665;40.108;18.302;2023-02-21T16:09:24;26.65;;;24.45;;
35562;SDS011;21665;40.108;18.302;2023-02-21T16:32:26;23.80;;;21.55;;
35562;SDS011;21665;40.108;18.302;2023-02-21T16:34:55;25.63;;;23.00;;
35562;SDS011;21665;40.108;18.302;2023-02-21T16:37:22;23.85;;;21.80;;
35562;SDS011;21665;40.108;18.302;2023-02-21T16:45:06;24.50;;;22.15;;
35562;SDS011;21665;40.108;18.302;2023-02-21T16:47:33;23.13;;;20.92;;
35562;SDS011;21665;40.108;18.302;2023-02-21T16:49:59;27.08;;;23.80;;
35562;SDS011;21665;40.108;18.302;2023-02-21T16:52:45;25.83;;;23.23;;
35562;SDS011;21665;40.108;18.302;2023-02-21T16:55:14;26.35;;;22.98;;
35562;SDS011;21665;40.108;18.302;2023-02-21T16:57:44;25.67;;;22.48;;
35562;SDS011;21665;40.108;18.302;2023-02-21T17:00:16;25.13;;;22.13;;
35562;SDS011;21665;40.108;18.302;2023-02-21T17:02:56;25.17;;;22.45;;
35562;SDS011;21665;40.108;18.302;2023-02-21T17:05:27;28.63;;;24.17;;
35562;SDS011;21665;40.108;18.302;2023-02-21T17:08:00;32.15;;;24.15;;
35562;SDS011;21665;40.108;18.302;2023-02-21T17:10:58;28.35;;;23.42;;
35562;SDS011;21665;40.108;18.302;2023-02-21T17:13:28;24.15;;;21.60;;
35562;SDS011;21665;40.108;18.302;2023-02-21T17:15:54;28.38;;;22.02;;
35562;SDS011;21665;40.108;18.302;2023-02-21T17:18:20;26.98;;;21.23;;
35562;SDS011;21665;40.108;18.302;2023-02-21T17:20:46;26.95;;;22.05;;
35562;SDS011;21665;40.108;18.302;2023-02-21T17:23:16;26.17;;;21.55;;
35562;SDS011;21665;40.108;18.302;2023-02-21T17:25:50;30.73;;;22.70;;
35562;SDS011;21665;40.108;18.302;2023-02-21T17:28:20;26.48;;;22.00;;
35562;SDS011;21665;40.108;18.302;2023-02-21T17:30:46;31.10;;;22.98;;
35562;SDS011;21665;40.108;18.302;2023-02-21T17:33:13;30.00;;;22.55;;
35562;SDS011;21665;40.108;18.302;2023-02-21T17:35:41;26.05;;;21.95;;
35562;SDS011;21665;40.108;18.302;2023-02-21T17:38:13;27.90;;;22.00;;
35562;SDS011;21665;40.108;18.302;2023-02-21T17:40:39;24.17;;;21.10;;
35562;SDS011;21665;40.108;18.302;2023-02-21T17:43:06;28.77;;;21.48;;
35562;SDS011;21665;40.108;18.302;2023-02-21T17:45:33;33.33;;;21.73;;
35562;SDS011;21665;40.108;18.302;2023-02-21T17:48:02;23.92;;;21.42;;
35562;SDS011;21665;40.108;18.302;2023-02-21T17:50:30;28.23;;;22.10;;
35562;SDS011;21665;40.108;18.302;2023-02-21T17:52:56;24.83;;;22.23;;
35562;SDS011;21665;40.108;18.302;2023-02-21T17:55:23;27.98;;;22.33;;
35562;SDS011;21665;40.108;18.302;2023-02-21T17:57:54;28.98;;;22.40;;
35562;SDS011;21665;40.108;18.302;2023-02-21T18:00:24;27.70;;;21.20;;
35562;SDS011;21665;40.108;18.302;2023-02-21T18:02:54;30.00;;;22.75;;
35562;SDS011;21665;40.108;18.302;2023-02-21T18:05:21;29.80;;;22.95;;
35562;SDS011;21665;40.108;18.302;2023-02-21T18:07:51;30.92;;;23.30;;
35562;SDS011;21665;40.108;18.302;2023-02-21T18:10:20;30.58;;;23.98;;
35562;SDS011;21665;40.108;18.302;2023-02-21T18:12:48;36.90;;;25.45;;
35562;SDS011;21665;40.108;18.302;2023-02-21T18:15:16;37.63;;;26.67;;
35562;SDS011;21665;40.108;18.302;2023-02-21T18:17:45;37.38;;;26.77;;
35562;SDS011;21665;40.108;18.302;2023-02-21T18:20:11;33.45;;;26.95;;
35562;SDS011;21665;40.108;18.302;2023-02-21T18:22:40;39.83;;;26.27;;
35562;SDS011;21665;40.108;18.302;2023-02-21T18:25:06;40.67;;;26.77;;
35562;SDS011;21665;40.108;18.302;2023-02-21T18:27:33;40.75;;;28.15;;
35562;SDS011;21665;40.108;18.302;2023-02-21T18:30:00;38.80;;;27.45;;
35562;SDS011;21665;40.108;18.302;2023-02-21T18:32:30;43.50;;;27.50;;
35562;SDS011;21665;40.108;18.302;2023-02-21T18:34:57;41.38;;;27.92;;
35562;SDS011;21665;40.108;18.302;2023-02-21T18:37:25;45.90;;;31.50;;
35562;SDS011;21665;40.108;18.302;2023-02-21T18:39:52;54.35;;;33.85;;
35562;SDS011;21665;40.108;18.302;2023-02-21T18:42:20;52.17;;;33.22;;
35562;SDS011;21665;40.108;18.302;2023-02-21T18:45:31;49.30;;;33.20;;
35562;SDS011;21665;40.108;18.302;2023-02-21T18:48:01;48.50;;;34.20;;
35562;SDS011;21665;40.108;18.302;2023-02-21T18:50:28;47.40;;;32.30;;
35562;SDS011;21665;40.108;18.302;2023-02-21T18:52:54;46.38;;;34.58;;
35562;SDS011;21665;40.108;18.302;2023-02-21T18:55:20;52.60;;;35.53;;
35562;SDS011;21665;40.108;18.302;2023-02-21T18:57:47;46.53;;;34.55;;
35562;SDS011;21665;40.108;18.302;2023-02-21T19:00:17;49.28;;;34.08;;
35562;SDS011;21665;40.108;18.302;2023-02-21T19:02:44;47.15;;;31.88;;
35562;SDS011;21665;40.108;18.302;2023-02-21T19:05:14;42.67;;;29.52;;
35562;SDS011;21665;40.108;18.302;2023-02-21T19:07:42;40.08;;;29.65;;
35562;SDS011;21665;40.108;18.302;2023-02-21T19:10:09;48.97;;;31.20;;
35562;SDS011;21665;40.108;18.302;2023-02-21T19:12:36;46.97;;;28.52;;
35562;SDS011;21665;40.108;18.302;2023-02-21T19:15:03;38.83;;;27.42;;
35562;SDS011;21665;40.108;18.302;2023-02-21T19:17:31;36.95;;;26.67;;
35562;SDS011;21665;40.108;18.302;2023-02-21T19:19:58;42.85;;;27.13;;
35562;SDS011;21665;40.108;18.302;2023-02-21T19:22:25;39.83;;;26.90;;
35562;SDS011;21665;40.108;18.302;2023-02-21T19:24:51;39.85;;;27.73;;
35562;SDS011;21665;40.108;18.302;2023-02-21T19:27:18;36.15;;;27.25;;
35562;SDS011;21665;40.108;18.302;2023-02-21T19:29:44;42.03;;;26.63;;
35562;SDS011;21665;40.108;18.302;2023-02-21T19:32:11;39.63;;;25.85;;
35562;SDS011;21665;40.108;18.302;2023-02-21T19:34:38;34.22;;;24.45;;
35562;SDS011;21665;40.108;18.302;2023-02-21T19:37:04;38.67;;;25.00;;
35562;SDS011;21665;40.108;18.302;2023-02-21T19:39:31;33.35;;;23.83;;
35562;SDS011;21665;40.108;18.302;2023-02-21T19:41:57;33.80;;;24.30;;
35562;SDS011;21665;40.108;18.302;2023-02-21T19:44:23;30.65;;;22.45;;
35562;SDS011;21665;40.108;18.302;2023-02-21T19:46:59;32.67;;;22.48;;
35562;SDS011;21665;40.108;18.302;2023-02-21T19:49:25;32.92;;;22.98;;
35562;SDS011;21665;40.108;18.302;2023-02-21T19:51:52;34.20;;;24.58;;
35562;SDS011;21665;40.108;18.302;2023-02-21T19:54:21;37.78;;;27.60;;
35562;SDS011;21665;40.108;18.302;2023-02-21T19:56:49;33.63;;;26.77;;
35562;SDS011;21665;40.108;18.302;2023-02-21T19:59:16;36.70;;;26.98;;
35562;SDS011;21665;40.108;18.302;2023-02-21T20:01:43;35.88;;;27.02;;
35562;SDS011;21665;40.108;18.302;2023-02-21T20:04:09;38.10;;;27.23;;
35562;SDS011;21665;40.108;18.302;2023-02-21T20:06:36;32.92;;;27.13;;
35562;SDS011;21665;40.108;18.302;2023-02-21T20:09:03;35.38;;;26.25;;
35562;SDS011;21665;40.108;18.302;2023-02-21T20:11:31;36.90;;;26.90;;
35562;SDS011;21665;40.108;18.302;2023-02-21T20:13:57;38.53;;;27.88;;
35562;SDS011;21665;40.108;18.302;2023-02-21T20:16:24;39.80;;;28.90;;
35562;SDS011;21665;40.108;18.302;2023-02-21T20:18:52;41.53;;;30.45;;
35562;SDS011;21665;40.108;18.302;2023-02-21T20:21:27;45.35;;;33.00;;
35562;SDS011;21665;40.108;18.302;2023-02-21T20:23:55;54.55;;;35.45;;
35562;SDS011;21665;40.108;18.302;2023-02-21T20:26:26;48.53;;;33.10;;
35562;SDS011;21665;40.108;18.302;2023-02-21T20:28:53;45.88;;;31.40;;
35562;SDS011;21665;40.108;18.302;2023-02-21T20:31:21;44.20;;;27.85;;
35562;SDS011;21665;40.108;18.302;2023-02-21T20:33:50;43.53;;;29.00;;
35562;SDS011;21665;40.108;18.302;2023-02-21T20:36:24;41.78;;;28.42;;
35562;SDS011;21665;40.108;18.302;2023-02-21T20:38:52;46.00;;;29.10;;
35562;SDS011;21665;40.108;18.302;2023-02-21T20:41:19;47.00;;;29.30;;
35562;SDS011;21665;40.108;18.302;2023-02-21T20:43:45;44.13;;;28.88;;
35562;SDS011;21665;40.108;18.302;2023-02-21T20:46:11;46.45;;;29.73;;
35562;SDS011;21665;40.108;18.302;2023-02-21T20:48:38;49.13;;;30.70;;
35562;SDS011;21665;40.108;18.302;2023-02-21T20:51:05;51.80;;;30.25;;
35562;SDS011;21665;40.108;18.302;2023-02-21T20:53:31;47.55;;;29.02;;
35562;SDS011;21665;40.108;18.302;2023-02-21T20:56:01;46.10;;;28.70;;
35562;SDS011;21665;40.108;18.302;2023-02-21T20:58:29;50.08;;;29.70;;
35562;SDS011;21665;40.108;18.302;2023-02-21T21:00:55;52.38;;;31.70;;
35562;SDS011;21665;40.108;18.302;2023-02-21T21:03:22;50.78;;;31.25;;
35562;SDS011;21665;40.108;18.302;2023-02-21T21:05:49;50.50;;;31.27;;
35562;SDS011;21665;40.108;18.302;2023-02-21T21:08:15;49.05;;;31.40;;
35562;SDS011;21665;40.108;18.302;2023-02-21T21:10:42;51.83;;;31.30;;
35562;SDS011;21665;40.108;18.302;2023-02-21T21:13:13;54.55;;;31.60;;
35562;SDS011;21665;40.108;18.302;2023-02-21T21:15:41;47.00;;;31.90;;
35562;SDS011;21665;40.108;18.302;2023-02-21T21:18:08;48.92;;;30.80;;
35562;SDS011;21665;40.108;18.302;2023-02-21T21:20:35;49.70;;;30.08;;
35562;SDS011;21665;40.108;18.302;2023-02-21T21:23:06;47.22;;;29.45;;
35562;SDS011;21665;40.108;18.302;2023-02-21T21:25:33;48.67;;;30.40;;
35562;SDS011;21665;40.108;18.302;2023-02-21T21:28:00;44.08;;;28.27;;
35562;SDS011;21665;40.108;18.302;2023-02-21T21:30:29;46.35;;;28.98;;
35562;SDS011;21665;40.108;18.302;2023-02-21T21:32:58;52.63;;;31.98;;
35562;SDS011;21665;40.108;18.302;2023-02-21T21:35:25;53.78;;;34.03;;
35562;SDS011;21665;40.108;18.302;2023-02-21T21:38:00;58.00;;;35.13;;
35562;SDS011;21665;40.108;18.302;2023-02-21T21:40:32;57.97;;;34.85;;
35562;SDS011;21665;40.108;18.302;2023-02-21T21:42:59;60.20;;;36.80;;
35562;SDS011;21665;40.108;18.302;2023-02-21T21:45:27;56.22;;;35.38;;
35562;SDS011;21665;40.108;18.302;2023-02-21T21:47:54;56.30;;;37.92;;
35562;SDS011;21665;40.108;18.302;2023-02-21T21:52:55;60.70;;;37.97;;
35562;SDS011;21665;40.108;18.302;2023-02-21T21:55:24;65.35;;;39.25;;
35562;SDS011;21665;40.108;18.302;2023-02-21T21:57:56;60.10;;;36.90;;
35562;SDS011;21665;40.108;18.302;2023-02-21T22:00:24;61.55;;;36.53;;
35562;SDS011;21665;40.108;18.302;2023-02-21T22:02:54;54.17;;;35.08;;
35562;SDS011;21665;40.108;18.302;2023-02-21T22:05:27;60.25;;;37.70;;
35562;SDS011;21665;40.108;18.302;2023-02-21T22:07:55;60.03;;;36.75;;
35562;SDS011;21665;40.108;18.302;2023-02-21T22:10:23;58.47;;;35.92;;